Latest Weather Observations for Nowra

IDN60901

Issued at 7:51 pm EST Friday 22 May 2015 (issued every 10 minutes, with the page automatically refreshed every 10 minutes)

About weather observations | Map of Canberra area stations | Latest observations for Canberra area | Other Formats
Station Details ID: 068072 Name: NOWRA RAN AIR STATION AWS Lat: -34.95 Lon: 150.54 Height: 109.0 m
Data from the previous 72 hours. | See also: Recent months at Nowra
Date/Time
EST
Tmp

°C
App
Tmp
°C
Dew
Point
°C
Rel
Hum
%
Delta-T

°C
Wind Press
QNH
hPa
Press
MSL
hPa
Rain
since
9 am
mm
Dir
 
Spd
km/h
Gust
km/h
Spd
kts
Gust
kts
22/07:30pm 11.0 8.0 10.7 98 0.2 SSW 17 26 9 14 1026.1 - 17.4
22/07:04pm 11.1 7.2 10.8 98 0.2 SW 22 35 12 19 1025.9 - 16.8
22/07:00pm 11.2 7.2 10.6 96 0.3 SW 22 35 12 19 1025.8 - 16.6
22/06:30pm 11.0 7.0 10.4 96 0.3 SW 22 32 12 17 1025.6 - 16.6
22/06:23pm 11.1 6.7 10.5 96 0.3 SW 24 32 13 17 1025.4 - 16.6
22/06:09pm 11.3 8.0 10.8 97 0.3 SSW 19 24 10 13 1025.4 - 16.6
22/05:50pm 11.1 9.3 10.9 99 0.1 WSW 11 15 6 8 1025.0 - 16.2
22/05:30pm 11.4 10.1 11.2 99 0.1 S 9 13 5 7 1025.0 - 16.0
22/05:00pm 11.6 9.2 11.4 99 0.1 SSW 15 24 8 13 1024.4 - 15.0
22/04:30pm 11.8 10.2 11.6 99 0.1 SW 11 19 6 10 1024.2 - 13.8
22/04:00pm 11.7 8.4 11.5 99 0.1 SSW 20 33 11 18 1023.7 - 12.8
22/03:29pm 11.6 8.2 11.4 99 0.1 SSW 20 33 11 18 1023.3 - 11.6
22/03:00pm 11.5 9.1 11.3 99 0.1 S 15 24 8 13 1023.4 1023.3 9.6
22/02:30pm 11.6 7.5 11.4 99 0.1 S 24 33 13 18 1023.0 - 7.4
22/02:00pm 11.8 7.6 11.2 96 0.3 SSW 24 35 13 19 1022.7 - 5.2
22/01:52pm 12.0 8.3 11.5 97 0.3 SSW 22 32 12 17 1022.6 - 5.0
22/01:30pm 12.1 8.0 11.6 97 0.3 S 24 35 13 19 1022.3 - 4.6
22/01:00pm 11.9 7.4 11.3 96 0.3 SSW 26 37 14 20 1022.1 - 4.0
22/12:30pm 11.8 8.1 11.5 98 0.2 S 22 33 12 18 1022.1 - 3.6
22/12:00pm 12.1 6.4 11.0 93 0.6 S 32 46 17 25 1022.1 1022.1 2.8
22/11:39am 12.6 6.8 10.7 88 1.0 SSW 32 50 17 27 1021.9 - 2.6
22/11:30am 12.6 6.0 10.0 84 1.3 SSW 35 50 19 27 1021.7 - 2.6
22/11:00am 13.2 7.0 10.2 82 1.6 S 33 46 18 25 1021.7 - 2.6
22/10:30am 12.5 6.1 10.6 88 1.0 S 35 50 19 27 1021.3 - 2.6
22/10:00am 12.0 5.9 11.8 99 0.1 S 35 50 19 27 1021.1 - 2.6
22/09:56am 12.1 6.6 11.9 99 0.1 SSW 32 46 17 25 1021.1 - 2.6
22/09:36am 12.5 6.2 12.3 99 0.1 S 37 61 20 33 1020.7 - 1.4
22/09:30am 13.4 8.1 12.6 95 0.4 S 32 48 17 26 1020.4 - 0.6
22/09:00am 13.4 7.0 13.2 99 0.1 S 39 56 21 30 1020.2 1020.2 22.4
22/08:47am 13.0 7.6 12.8 99 0.1 SSE 33 50 18 27 1020.1 - 20.6
22/08:31am 13.3 8.0 13.1 99 0.1 SSE 33 50 18 27 1019.7 - 19.6
22/08:08am 13.2 10.6 13.2 100 0.0 S 19 26 10 14 1019.3 - 18.2
22/08:00am 13.0 10.3 13.0 100 0.0 S 19 26 10 14 1019.2 - 18.2
22/07:54am 12.8 10.4 12.8 100 0.0 SSW 17 22 9 12 1019.1 - 18.2
22/07:49am 12.8 10.4 12.8 100 0.0 SSW 17 26 9 14 1018.9 - 17.6
22/07:30am 12.6 9.6 12.6 100 0.0 SSW 20 26 11 14 1018.7 - 17.0
22/06:55am 12.4 9.3 12.2 99 0.1 SSW 20 26 11 14 1018.6 - 11.4
22/06:47am 12.4 9.3 12.2 99 0.1 SSW 20 28 11 15 1018.4 - 10.4
22/06:35am 12.3 8.8 12.1 99 0.1 SSW 22 28 12 15 1018.2 - 9.8
22/06:30am 12.3 9.2 12.1 99 0.1 SSW 20 28 11 15 1018.1 - 9.4
22/06:29am 12.4 9.3 12.2 99 0.1 SSW 20 28 11 15 1018.1 - 9.4
22/06:12am 12.3 8.4 12.1 99 0.1 S 24 30 13 16 1018.0 - 8.8
22/05:30am 12.2 8.6 12.0 99 0.1 S 22 37 12 20 1017.5 - 7.4
22/05:00am 11.9 8.1 11.3 96 0.3 S 22 35 12 19 1017.3 - 7.0
22/04:30am 12.0 7.7 10.7 92 0.7 SSW 24 33 13 18 1017.2 - 6.8
22/04:00am 12.1 6.8 11.2 94 0.5 SSW 30 41 16 22 1017.1 - 6.6
22/03:30am 12.0 7.1 11.4 96 0.3 SSW 28 44 15 24 1017.1 - 6.6
22/03:21am 12.0 6.1 11.2 95 0.4 SSW 33 44 18 24 1017.2 - 6.6
22/03:11am 12.2 6.6 11.4 95 0.4 SSW 32 43 17 23 1017.3 - 6.6
22/02:30am 12.7 7.5 10.1 84 1.3 SSW 28 43 15 23 1017.3 - 6.4
22/02:00am 12.7 6.4 9.7 82 1.5 SSW 33 46 18 25 1017.5 - 6.4
22/01:30am 13.3 7.9 9.5 78 1.9 SSW 28 41 15 22 1017.6 - 6.4
22/01:00am 13.2 8.4 10.2 82 1.6 SSW 26 33 14 18 1017.7 - 6.4
22/12:30am 13.0 8.1 10.0 82 1.6 SSW 26 41 14 22 1017.9 - 6.4
 
Date/Time
EST
Tmp

°C
App
Tmp
°C
Dew
Point
°C
Rel
Hum
%
Delta-T

°C
Wind Press
QNH
hPa
Press
MSL
hPa
Rain
since
9 am
mm
Dir
 
Spd
km/h
Gust
km/h
Spd
kts
Gust
kts
21/11:30pm 13.0 8.4 9.8 81 1.6 SSW 24 33 13 18 1018.3 - 6.4
21/11:00pm 12.8 9.3 11.0 89 0.9 SSW 20 30 11 16 1018.5 - 6.4
21/10:30pm 13.0 9.4 10.7 86 1.2 SSW 20 30 11 16 1018.6 - 6.2
21/10:00pm 13.0 10.1 10.9 87 1.1 SW 17 22 9 12 1018.7 - 6.2
21/09:30pm 12.7 10.8 11.9 95 0.4 WSW 13 15 7 8 1019.0 - 6.2
21/09:00pm 12.6 10.4 12.0 96 0.3 W 15 19 8 10 1018.6 1018.6 6.2
21/08:30pm 12.8 9.9 12.2 96 0.3 SSW 19 26 10 14 1018.7 - 6.0
21/08:00pm 12.9 9.9 12.6 98 0.2 SW 20 30 11 16 1018.8 - 5.6
21/07:30pm 12.8 9.4 12.6 99 0.1 SW 22 28 12 15 1019.0 - 4.4
21/07:12pm 12.9 9.5 12.4 97 0.3 S 22 30 12 16 1019.1 - 2.2
21/07:00pm 13.0 9.5 12.2 95 0.4 SSW 22 28 12 15 1018.7 - 1.2
21/06:30pm 13.3 7.8 11.7 90 0.9 SSW 32 41 17 22 1018.5 - 0.0
21/06:00pm 14.2 11.8 12.6 90 0.9 SSW 17 28 9 15 1018.3 - 0.0
21/05:30pm 14.3 11.4 12.2 87 1.1 SSW 19 28 10 15 1018.3 - 0.0
21/05:00pm 14.8 12.2 11.9 83 1.6 S 17 24 9 13 1018.2 - 0.0
21/04:30pm 15.6 12.1 12.2 80 1.9 S 22 30 12 16 1018.0 - 0.0
21/04:00pm 16.2 13.0 12.0 76 2.3 S 20 32 11 17 1017.9 - 0.0
21/03:30pm 17.2 12.0 11.5 69 3.1 SSE 30 39 16 21 1017.5 - 0.0
21/03:00pm 17.4 13.9 10.3 63 3.8 S 19 28 10 15 1017.3 1017.3 0.0
21/02:30pm 18.0 13.3 9.4 57 4.5 S 24 33 13 18 1017.1 - 0.0
21/02:00pm 18.7 15.9 10.0 57 4.7 SSE 15 19 8 10 1017.2 - 0.0
21/01:30pm 18.4 15.2 10.0 58 4.5 SSE 17 24 9 13 1017.4 - 0.0
21/01:00pm 18.8 14.5 6.9 46 6.0 S 19 26 10 14 1017.7 - 0.0
21/12:30pm 18.8 14.2 5.6 42 6.5 S 19 24 10 13 1017.9 - 0.0
21/12:00pm 18.5 14.6 7.0 47 5.8 SSW 17 22 9 12 1018.4 1018.4 0.0
21/11:30am 18.0 13.8 7.4 50 5.4 S 19 26 10 14 1018.6 - 0.0
21/11:00am 18.7 14.5 8.1 50 5.5 SSW 20 30 11 16 1018.9 - 0.0
21/10:30am 17.9 14.3 8.5 54 4.9 SSW 17 24 9 13 1019.0 - 0.0
21/10:00am 17.3 14.5 8.7 57 4.5 SSW 13 20 7 11 1019.0 - 0.0
21/09:30am 17.4 13.3 8.8 57 4.5 SSW 20 24 11 13 1018.7 - 0.0
21/09:00am 14.1 11.5 9.5 74 2.4 WNW 13 17 7 9 1018.6 1018.6 1.6
21/08:30am 13.9 10.6 9.5 75 2.3 W 17 19 9 10 1018.5 - 1.6
21/08:00am 13.0 9.5 8.9 76 2.1 W 17 20 9 11 1018.2 - 1.6
21/07:30am 13.1 10.0 8.8 75 2.2 WNW 15 19 8 10 1017.9 - 1.6
21/07:00am 12.1 8.6 8.8 80 1.7 WNW 17 19 9 10 1017.6 - 1.6
21/06:30am 12.1 8.2 8.8 80 1.7 WNW 19 20 10 11 1017.1 - 1.6
21/06:00am 12.4 9.0 9.1 80 1.7 WNW 17 22 9 12 1016.9 1016.9 1.6
21/05:30am 12.5 9.5 9.3 81 1.6 WNW 15 19 8 10 1016.6 - 1.6
21/05:00am 12.9 9.6 9.4 79 1.8 NW 17 20 9 11 1016.2 - 1.6
21/04:30am 13.5 10.2 9.7 78 2.0 WNW 17 20 9 11 1016.0 - 1.6
21/04:00am 14.1 10.3 9.9 76 2.2 W 20 24 11 13 1015.8 - 1.6
21/03:30am 14.2 10.6 10.4 78 2.0 WNW 20 22 11 12 1016.0 - 1.6
21/03:00am 14.0 10.7 10.8 81 1.7 WNW 19 22 10 12 1016.2 1016.1 1.6
21/02:30am 14.2 11.6 10.8 80 1.8 WNW 15 19 8 10 1016.3 - 1.6
21/02:00am 14.4 11.6 11.4 82 1.6 WNW 17 20 9 11 1016.0 - 1.6
21/01:30am 14.1 11.8 11.6 85 1.3 WNW 15 17 8 9 1016.0 - 1.6
21/01:00am 14.3 12.1 12.0 86 1.2 NW 15 17 8 9 1016.0 - 1.6
21/12:30am 14.0 11.9 12.4 90 0.9 WNW 15 15 8 8 1016.2 - 1.6
21/12:00am 14.0 12.8 12.7 92 0.7 WNW 11 13 6 7 1016.2 1016.1 1.6
 
Date/Time
EST
Tmp

°C
App
Tmp
°C
Dew
Point
°C
Rel
Hum
%
Delta-T

°C
Wind Press
QNH
hPa
Press
MSL
hPa
Rain
since
9 am
mm
Dir
 
Spd
km/h
Gust
km/h
Spd
kts
Gust
kts
20/11:30pm 14.4 12.7 12.6 89 1.0 NW 13 15 7 8 1016.4 - 1.6
20/11:00pm 14.5 12.9 12.7 89 1.0 WNW 13 15 7 8 1016.3 - 1.6
20/10:30pm 14.6 13.1 13.1 91 0.8 WNW 13 15 7 8 1016.4 - 1.6
20/10:00pm 14.3 13.6 13.3 94 0.6 WNW 9 11 5 6 1016.2 - 1.6
20/09:30pm 14.4 13.0 13.4 94 0.6 NW 13 15 7 8 1016.3 - 1.6
20/09:00pm 14.5 12.7 13.4 93 0.6 WNW 15 17 8 9 1016.1 1016.0 1.6
20/08:30pm 14.8 14.4 14.0 95 0.5 W 9 13 5 7 1015.9 - 1.6
20/08:07pm 14.7 14.1 13.6 93 0.6 SSW 9 13 5 7 1015.8 - 1.4
20/08:00pm 14.8 13.5 13.7 93 0.6 SW 13 19 7 10 1015.7 - 1.4
20/07:47pm 15.4 10.2 12.9 85 1.4 W 32 44 17 24 1016.1 - 0.6
20/07:30pm 15.6 15.2 13.1 85 1.4 W 7 32 4 17 1015.4 - 0.0
20/07:00pm 14.6 14.1 12.6 88 1.1 W 7 9 4 5 1014.7 - 0.0
20/06:30pm 15.9 16.5 13.0 83 1.6 WNW 2 7 1 4 1014.4 - 0.0
20/06:00pm 16.2 16.4 12.0 76 2.3 N 2 7 1 4 1014.1 1014.0 0.0
20/05:30pm 17.5 18.3 12.6 73 2.7 CALM 0 0 0 0 1013.6 - 0.0
20/05:00pm 17.8 17.8 12.3 70 3.1 WSW 4 9 2 5 1013.5 - 0.0
20/04:30pm 20.3 20.6 11.0 55 5.1 CALM 0 6 0 3 1013.4 - 0.0
20/04:00pm 21.5 20.0 10.6 50 6.0 W 9 13 5 7 1013.0 - 0.0
20/03:30pm 23.0 21.7 9.8 43 7.2 NW 7 13 4 7 1013.0 - 0.0
20/03:00pm 22.9 19.7 10.0 44 7.1 NW 17 20 9 11 1012.7 1012.7 0.0
20/02:30pm 23.0 21.0 11.4 48 6.5 WNW 13 20 7 11 1012.9 - 0.0
20/02:00pm 22.5 19.1 10.6 47 6.6 WSW 19 26 10 14 1013.0 - 0.0
20/01:30pm 22.7 20.3 11.4 49 6.3 WNW 15 22 8 12 1013.0 - 0.0
20/01:00pm 21.7 21.2 12.5 56 5.2 W 7 17 4 9 1013.4 - 0.0
20/12:30pm 20.9 18.8 11.0 53 5.5 W 13 22 7 12 1013.5 - 0.0
20/12:00pm 21.4 20.6 12.8 58 4.9 N 9 15 5 8 1014.0 1013.9 0.0
20/11:30am 20.2 18.3 11.7 58 4.7 NNW 13 17 7 9 1014.6 - 0.0
20/11:00am 19.9 18.1 12.2 61 4.3 NW 13 17 7 9 1014.8 - 0.0
20/10:30am 19.2 17.4 12.0 63 4.0 NW 13 17 7 9 1015.2 - 0.0
20/10:00am 18.3 17.1 12.7 70 3.1 NNW 11 17 6 9 1015.4 - 0.0
20/09:30am 17.5 16.2 12.4 72 2.8 NNW 11 15 6 8 1015.5 - 0.0
20/09:00am 16.5 15.0 13.2 81 1.9 NNW 13 15 7 8 1015.6 1015.5 3.2
20/08:30am 15.6 17.0 14.3 92 0.7 CALM 0 0 0 0 1015.5 - 3.2
20/08:00am 13.4 13.1 13.4 100 0.0 W 7 11 4 6 1015.1 - 3.2
20/07:30am 11.3 10.6 11.3 100 0.0 WNW 6 9 3 5 1014.9 - 3.2
20/07:00am 9.7 9.6 9.6 99 0.1 CALM 0 0 0 0 1014.5 - 3.2
20/06:30am 9.8 9.8 9.7 99 0.1 CALM 0 0 0 0 1014.3 - 3.2
20/06:00am 11.0 11.1 10.2 95 0.4 CALM 0 0 0 0 1013.8 1013.7 3.2
20/05:30am 12.3 10.5 12.1 99 0.1 NW 13 15 7 8 1013.3 - 3.2
20/05:00am 11.7 10.8 11.5 99 0.1 WNW 7 7 4 4 1012.7 - 3.2
20/04:30am 11.9 12.4 11.7 99 0.1 CALM 0 13 0 7 1012.8 - 3.2
20/04:00am 12.1 11.4 11.9 99 0.1 WNW 7 9 4 5 1012.5 - 3.2
20/03:30am 12.6 11.3 12.4 99 0.1 W 11 13 6 7 1012.6 - 3.2
20/03:00am 12.5 11.1 12.3 99 0.1 W 11 15 6 8 1013.3 1013.2 3.2
20/02:30am 12.7 10.6 12.5 99 0.1 WSW 15 17 8 9 1013.1 - 3.2
20/02:00am 12.4 10.2 12.2 99 0.1 W 15 15 8 8 1013.0 - 3.2
20/01:30am 12.3 10.9 12.1 99 0.1 W 11 13 6 7 1012.9 - 3.2
20/01:00am 12.0 10.5 11.8 99 0.1 W 11 13 6 7 1013.3 - 3.2
20/12:30am 11.9 10.3 11.7 99 0.1 W 11 13 6 7 1013.3 - 3.2
20/12:00am 12.2 10.7 12.0 99 0.1 W 11 13 6 7 1013.5 1013.4 3.2
 
Date/Time
EST
Tmp

°C
App
Tmp
°C
Dew
Point
°C
Rel
Hum
%
Delta-T

°C
Wind Press
QNH
hPa
Press
MSL
hPa
Rain
since
9 am
mm
Dir
 
Spd
km/h
Gust
km/h
Spd
kts
Gust
kts
19/11:30pm 12.1 11.0 11.9 99 0.1 W 9 11 5 6 1013.7 - 3.0
19/11:00pm 12.8 11.1 12.6 99 0.1 W 13 13 7 7 1014.0 - 3.0
19/10:30pm 13.6 12.5 13.0 96 0.3 WNW 11 13 6 7 1013.9 - 3.0
19/10:00pm 13.8 12.3 13.2 96 0.3 NW 13 17 7 9 1014.2 - 3.0
19/09:30pm 13.1 11.5 12.9 99 0.1 NW 13 13 7 7 1014.2 - 3.0
19/09:00pm 13.1 12.3 12.9 99 0.1 NW 9 13 5 7 1014.4 1014.3 3.0
19/08:30pm 13.9 13.4 13.9 100 0.0 WNW 9 13 5 7 1014.7 - 3.0
19/08:00pm 13.6 13.0 13.6 100 0.0 WNW 9 11 5 6 1014.5 - 3.0

Latest Capital City Observations: Canberra | Sydney | Melbourne | Brisbane | Adelaide | Perth | Hobart | Darwin

Other Formats:

Comma delimited format used in spreadsheet applications
http://www.bom.gov.au/fwo/IDN60903/IDN60903.94750.axf

JavaScript Object Notation format (JSON) in row-major order
http://www.bom.gov.au/fwo/IDN60903/IDN60903.94750.json